UAL387 KLAX-KDEN
Flight info
| Callsign | UAL387 |
|---|---|
| Flight time | 2h 6m |
| Altitude | 41000 |
| Route | ORCKA5 LAS J146 DICEE BUMMP SSKII4 |
| Aircraft | B789/H-SDE1E2E3FGHIJ2J3J4J5M1RWXY/LB1D1 |
Departure
| Time | 2026-04-20 04:47 |
|---|---|
| Airport | Los Angeles International Airport (KLAX) |
Arrival
| Time | 2026-04-20 06:53 |
|---|---|
| Airport | Denver International Airport (KDEN) |
| Time | Latitude | Longitude | Altitude | Speed | Heading |
|---|---|---|---|---|---|
| 2026-04-20 04:24 | 33.94029 | -118.39990 | 98 ft | 0 kts | 49° |
| 2026-04-20 04:34 | 33.94024 | -118.39998 | 99 ft | 4 kts | 49° |
| 2026-04-20 04:34 | 33.94006 | -118.40023 | 99 ft | 4 kts | 49° |
| 2026-04-20 04:35 | 33.93988 | -118.40046 | 98 ft | 4 kts | 38° |
| 2026-04-20 04:35 | 33.93966 | -118.40065 | 97 ft | 4 kts | 39° |
| 2026-04-20 04:35 | 33.93952 | -118.40088 | 100 ft | 4 kts | 82° |
| 2026-04-20 04:35 | 33.93949 | -118.40120 | 99 ft | 4 kts | 82° |
| 2026-04-20 04:36 | 33.93947 | -118.40134 | 99 ft | 0 kts | 82° |
| 2026-04-20 04:41 | 33.93948 | -118.40126 | 99 ft | 4 kts | 82° |
| 2026-04-20 04:41 | 33.93950 | -118.40072 | 100 ft | 5 kts | 105° |
| 2026-04-20 04:42 | 33.93922 | -118.40048 | 98 ft | 7 kts | 157° |
| 2026-04-20 04:42 | 33.93880 | -118.39992 | 104 ft | 11 kts | 109° |
| 2026-04-20 04:42 | 33.93892 | -118.39876 | 101 ft | 18 kts | 82° |
| 2026-04-20 04:42 | 33.93910 | -118.39701 | 102 ft | 24 kts | 83° |
| 2026-04-20 04:43 | 33.93931 | -118.39485 | 100 ft | 28 kts | 84° |
| 2026-04-20 04:43 | 33.93951 | -118.39285 | 100 ft | 22 kts | 83° |
| 2026-04-20 04:43 | 33.93972 | -118.39094 | 99 ft | 24 kts | 82° |
| 2026-04-20 04:43 | 33.93991 | -118.38898 | 99 ft | 24 kts | 84° |
| 2026-04-20 04:44 | 33.94010 | -118.38699 | 103 ft | 24 kts | 82° |
| 2026-04-20 04:44 | 33.94033 | -118.38497 | 102 ft | 24 kts | 83° |
| 2026-04-20 04:44 | 33.94050 | -118.38323 | 102 ft | 20 kts | 83° |
| 2026-04-20 04:44 | 33.94067 | -118.38147 | 99 ft | 23 kts | 83° |
| 2026-04-20 04:45 | 33.94075 | -118.38043 | 99 ft | 0 kts | 98° |
| 2026-04-20 04:45 | 33.94074 | -118.38042 | 98 ft | 0 kts | 102° |
| 2026-04-20 04:45 | 33.94071 | -118.38030 | 98 ft | 4 kts | 110° |
| 2026-04-20 04:45 | 33.94050 | -118.38008 | 99 ft | 5 kts | 157° |
| 2026-04-20 04:46 | 33.93996 | -118.37999 | 101 ft | 8 kts | 197° |
| 2026-04-20 04:46 | 33.93971 | -118.38036 | 100 ft | 5 kts | 256° |
| 2026-04-20 04:46 | 33.93973 | -118.38128 | 100 ft | 20 kts | 266° |
| 2026-04-20 04:46 | 33.93934 | -118.38514 | 105 ft | 88 kts | 262° |
| 2026-04-20 04:47 | 33.93825 | -118.39598 | 130 ft | 166 kts | 264° |
| 2026-04-20 04:47 | 33.93718 | -118.41116 | 652 ft | 196 kts | 266° |
| 2026-04-20 04:47 | 33.93672 | -118.42703 | 1791 ft | 186 kts | 269° |
| 2026-04-20 04:47 | 33.93529 | -118.44332 | 2360 ft | 211 kts | 256° |
| 2026-04-20 04:48 | 33.93111 | -118.46121 | 2949 ft | 227 kts | 251° |
| 2026-04-20 04:48 | 33.92498 | -118.47887 | 3878 ft | 233 kts | 246° |
| 2026-04-20 04:48 | 33.91818 | -118.49777 | 4476 ft | 259 kts | 248° |
| 2026-04-20 04:48 | 33.91580 | -118.51964 | 4960 ft | 272 kts | 279° |
| 2026-04-20 04:49 | 33.92323 | -118.54032 | 5001 ft | 270 kts | 302° |
| 2026-04-20 04:49 | 33.92931 | -118.56131 | 4988 ft | 268 kts | 271° |
| 2026-04-20 04:49 | 33.92419 | -118.58254 | 4993 ft | 268 kts | 236° |
| 2026-04-20 04:49 | 33.90961 | -118.59607 | 5159 ft | 273 kts | 197° |
| 2026-04-20 04:50 | 33.89109 | -118.59609 | 6308 ft | 268 kts | 171° |
| 2026-04-20 04:50 | 33.87327 | -118.58897 | 7233 ft | 274 kts | 153° |
| 2026-04-20 04:50 | 33.85541 | -118.58082 | 8118 ft | 278 kts | 167° |
| 2026-04-20 04:50 | 33.83625 | -118.57634 | 9128 ft | 281 kts | 171° |
| 2026-04-20 04:51 | 33.81681 | -118.57249 | 10236 ft | 286 kts | 171° |
| 2026-04-20 04:51 | 33.79668 | -118.56607 | 10709 ft | 314 kts | 160° |
| 2026-04-20 04:51 | 33.77554 | -118.55571 | 11119 ft | 341 kts | 157° |
| 2026-04-20 04:51 | 33.75352 | -118.54465 | 12139 ft | 344 kts | 159° |
| 2026-04-20 04:52 | 33.73081 | -118.53492 | 13093 ft | 349 kts | 161° |
| 2026-04-20 04:52 | 33.70916 | -118.52235 | 13967 ft | 355 kts | 142° |
| 2026-04-20 04:52 | 33.69260 | -118.50029 | 14889 ft | 360 kts | 120° |
| 2026-04-20 04:52 | 33.68263 | -118.47257 | 15708 ft | 366 kts | 110° |
| 2026-04-20 04:53 | 33.67408 | -118.44368 | 16562 ft | 370 kts | 109° |
| 2026-04-20 04:53 | 33.66578 | -118.41425 | 17385 ft | 375 kts | 109° |
| 2026-04-20 04:53 | 33.65707 | -118.38464 | 18177 ft | 379 kts | 110° |
| 2026-04-20 04:53 | 33.65097 | -118.36447 | 18688 ft | 382 kts | 110° |
| 2026-04-20 04:54 | 33.64432 | -118.32284 | 19643 ft | 387 kts | 90° |
| 2026-04-20 04:54 | 33.64418 | -118.30130 | 20063 ft | 391 kts | 90° |
| 2026-04-20 04:54 | 33.64451 | -118.26855 | 20775 ft | 395 kts | 89° |
| 2026-04-20 04:54 | 33.64481 | -118.23536 | 21434 ft | 399 kts | 89° |
| 2026-04-20 04:55 | 33.64868 | -118.20239 | 22037 ft | 402 kts | 71° |
| 2026-04-20 04:55 | 33.66088 | -118.17215 | 22670 ft | 406 kts | 54° |
| 2026-04-20 04:55 | 33.68019 | -118.14736 | 23224 ft | 409 kts | 38° |
| 2026-04-20 04:55 | 33.70293 | -118.12654 | 23746 ft | 413 kts | 36° |
| 2026-04-20 04:56 | 33.72644 | -118.10650 | 24287 ft | 416 kts | 35° |
| 2026-04-20 04:56 | 33.74993 | -118.08584 | 24822 ft | 420 kts | 37° |
| 2026-04-20 04:56 | 33.77329 | -118.06445 | 25325 ft | 423 kts | 37° |
| 2026-04-20 04:56 | 33.79686 | -118.04302 | 25827 ft | 427 kts | 36° |
| 2026-04-20 04:57 | 33.82079 | -118.02169 | 26299 ft | 430 kts | 36° |
| 2026-04-20 04:57 | 33.84491 | -118.00016 | 26760 ft | 433 kts | 37° |
| 2026-04-20 04:57 | 33.86911 | -117.97833 | 27206 ft | 436 kts | 37° |
| 2026-04-20 04:57 | 33.89346 | -117.95631 | 27637 ft | 439 kts | 37° |
| 2026-04-20 04:58 | 33.91797 | -117.93422 | 28051 ft | 443 kts | 37° |
| 2026-04-20 04:58 | 33.94262 | -117.91176 | 28473 ft | 446 kts | 37° |
| 2026-04-20 04:58 | 33.96742 | -117.88894 | 28844 ft | 450 kts | 37° |
| 2026-04-20 04:58 | 33.99235 | -117.86610 | 29274 ft | 451 kts | 37° |
| 2026-04-20 04:59 | 34.01745 | -117.84320 | 29653 ft | 454 kts | 37° |
| 2026-04-20 04:59 | 34.04271 | -117.82011 | 30027 ft | 457 kts | 37° |
| 2026-04-20 04:59 | 34.06809 | -117.79681 | 30375 ft | 460 kts | 37° |
| 2026-04-20 04:59 | 34.09257 | -117.77191 | 30679 ft | 463 kts | 47° |
| 2026-04-20 05:00 | 34.11343 | -117.74215 | 30963 ft | 466 kts | 51° |
| 2026-04-20 05:00 | 34.13384 | -117.71173 | 31291 ft | 468 kts | 51° |
| 2026-04-20 05:00 | 34.15438 | -117.68100 | 31592 ft | 471 kts | 51° |
| 2026-04-20 05:00 | 34.17517 | -117.65019 | 31855 ft | 476 kts | 50° |
| 2026-04-20 05:01 | 34.19617 | -117.61915 | 32127 ft | 479 kts | 51° |
| 2026-04-20 05:01 | 34.21733 | -117.58768 | 32285 ft | 485 kts | 51° |
| 2026-04-20 05:01 | 34.23870 | -117.55579 | 32422 ft | 491 kts | 51° |
| 2026-04-20 05:01 | 34.26013 | -117.52386 | 33002 ft | 486 kts | 51° |
| 2026-04-20 05:02 | 34.28146 | -117.49210 | 33245 ft | 489 kts | 51° |
| 2026-04-20 05:02 | 34.30286 | -117.46018 | 33581 ft | 489 kts | 51° |
| 2026-04-20 05:02 | 34.32433 | -117.42808 | 33789 ft | 492 kts | 51° |
| 2026-04-20 05:02 | 34.34565 | -117.39620 | 34015 ft | 494 kts | 51° |
| 2026-04-20 05:03 | 34.36732 | -117.36379 | 34266 ft | 496 kts | 51° |
| 2026-04-20 05:03 | 34.38905 | -117.33125 | 34505 ft | 497 kts | 51° |
| 2026-04-20 05:03 | 34.41073 | -117.29874 | 34854 ft | 496 kts | 51° |
| 2026-04-20 05:03 | 34.43239 | -117.26624 | 35195 ft | 495 kts | 51° |
| 2026-04-20 05:04 | 34.45400 | -117.23379 | 35534 ft | 494 kts | 51° |
| 2026-04-20 05:04 | 34.47554 | -117.20140 | 35833 ft | 493 kts | 51° |
| 2026-04-20 05:04 | 34.49704 | -117.16906 | 36115 ft | 493 kts | 51° |
| 2026-04-20 05:04 | 34.51852 | -117.13671 | 36393 ft | 492 kts | 51° |
| 2026-04-20 05:05 | 34.54002 | -117.10432 | 36646 ft | 492 kts | 50° |
| 2026-04-20 05:05 | 34.56224 | -117.07271 | 36850 ft | 493 kts | 50° |
| 2026-04-20 05:05 | 34.58398 | -117.04060 | 37069 ft | 494 kts | 51° |
| 2026-04-20 05:05 | 34.60573 | -117.00818 | 37270 ft | 495 kts | 50° |
| 2026-04-20 05:06 | 34.62781 | -116.97617 | 37582 ft | 493 kts | 50° |
| 2026-04-20 05:06 | 34.64994 | -116.94432 | 37828 ft | 494 kts | 50° |
| 2026-04-20 05:06 | 34.67190 | -116.91223 | 37974 ft | 496 kts | 50° |
| 2026-04-20 05:06 | 34.69385 | -116.87987 | 38246 ft | 495 kts | 50° |
| 2026-04-20 05:07 | 34.71581 | -116.84773 | 38518 ft | 494 kts | 50° |
| 2026-04-20 05:07 | 34.73784 | -116.81559 | 38720 ft | 495 kts | 50° |
| 2026-04-20 05:07 | 34.75987 | -116.78336 | 38945 ft | 495 kts | 50° |
| 2026-04-20 05:07 | 34.78181 | -116.75109 | 39178 ft | 495 kts | 50° |
| 2026-04-20 05:08 | 34.80374 | -116.71885 | 39438 ft | 494 kts | 50° |
| 2026-04-20 05:08 | 34.82558 | -116.68678 | 39736 ft | 492 kts | 50° |
| 2026-04-20 05:08 | 34.84738 | -116.65474 | 40009 ft | 490 kts | 50° |
| 2026-04-20 05:08 | 34.87004 | -116.62386 | 40174 ft | 490 kts | 47° |
| 2026-04-20 05:09 | 34.89305 | -116.59316 | 40351 ft | 490 kts | 48° |
| 2026-04-20 05:09 | 34.91584 | -116.56228 | 40545 ft | 490 kts | 47° |
| 2026-04-20 05:09 | 34.93881 | -116.53151 | 40714 ft | 491 kts | 47° |
| 2026-04-20 05:09 | 34.96185 | -116.50092 | 40914 ft | 490 kts | 47° |
| 2026-04-20 05:10 | 34.98488 | -116.47016 | 40996 ft | 493 kts | 47° |
| 2026-04-20 05:10 | 35.03101 | -116.40810 | 40995 ft | 492 kts | 47° |
| 2026-04-20 05:11 | 35.07691 | -116.34655 | 40993 ft | 489 kts | 47° |
| 2026-04-20 05:11 | 35.12254 | -116.28507 | 40993 ft | 488 kts | 47° |
| 2026-04-20 05:12 | 35.16808 | -116.22370 | 40995 ft | 488 kts | 47° |
| 2026-04-20 05:12 | 35.21378 | -116.16196 | 40994 ft | 490 kts | 47° |
| 2026-04-20 05:13 | 35.25941 | -116.10022 | 40994 ft | 489 kts | 47° |
| 2026-04-20 05:13 | 35.30460 | -116.03895 | 40995 ft | 487 kts | 47° |
| 2026-04-20 05:14 | 35.34995 | -115.97736 | 40991 ft | 488 kts | 48° |
| 2026-04-20 05:14 | 35.39556 | -115.91531 | 40993 ft | 492 kts | 48° |
| 2026-04-20 05:15 | 35.44151 | -115.85268 | 40997 ft | 495 kts | 48° |
| 2026-04-20 05:15 | 35.48758 | -115.78977 | 40999 ft | 496 kts | 48° |
| 2026-04-20 05:16 | 35.53345 | -115.72701 | 41000 ft | 493 kts | 48° |
| 2026-04-20 05:16 | 35.57909 | -115.66446 | 40995 ft | 491 kts | 48° |
| 2026-04-20 05:17 | 35.62481 | -115.60167 | 40997 ft | 494 kts | 48° |
| 2026-04-20 05:17 | 35.67063 | -115.53864 | 41001 ft | 493 kts | 48° |
| 2026-04-20 05:18 | 35.71610 | -115.47596 | 40996 ft | 491 kts | 48° |
| 2026-04-20 05:18 | 35.76178 | -115.41285 | 40997 ft | 495 kts | 48° |
| 2026-04-20 05:19 | 35.80750 | -115.34958 | 40996 ft | 492 kts | 48° |
| 2026-04-20 05:19 | 35.85293 | -115.28660 | 40995 ft | 492 kts | 48° |
| 2026-04-20 05:20 | 35.89831 | -115.22357 | 40995 ft | 492 kts | 48° |
| 2026-04-20 05:20 | 35.94372 | -115.16037 | 40997 ft | 491 kts | 48° |
| 2026-04-20 05:21 | 35.98929 | -115.09684 | 41006 ft | 498 kts | 48° |
| 2026-04-20 05:21 | 36.01442 | -115.06755 | 41038 ft | 500 kts | 35° |
| 2026-04-20 05:21 | 36.04417 | -115.04502 | 41035 ft | 502 kts | 24° |
| 2026-04-20 05:21 | 36.07707 | -115.03046 | 41039 ft | 505 kts | 12° |
| 2026-04-20 05:22 | 36.11186 | -115.02444 | 41041 ft | 507 kts | 0° |
| 2026-04-20 05:22 | 36.14710 | -115.02728 | 41047 ft | 509 kts | 348° |
| 2026-04-20 05:22 | 36.18124 | -115.03891 | 41047 ft | 510 kts | 336° |
| 2026-04-20 05:22 | 36.21280 | -115.05884 | 41045 ft | 511 kts | 325° |
| 2026-04-20 05:23 | 36.24049 | -115.08624 | 41043 ft | 509 kts | 313° |
| 2026-04-20 05:23 | 36.26301 | -115.11986 | 41043 ft | 508 kts | 302° |
| 2026-04-20 05:23 | 36.27951 | -115.15822 | 41042 ft | 507 kts | 290° |
| 2026-04-20 05:23 | 36.28945 | -115.20019 | 41044 ft | 507 kts | 278° |
| 2026-04-20 05:24 | 36.29230 | -115.24363 | 41041 ft | 508 kts | 267° |
| 2026-04-20 05:24 | 36.28799 | -115.28700 | 41041 ft | 508 kts | 255° |
| 2026-04-20 05:24 | 36.27666 | -115.32842 | 41044 ft | 508 kts | 244° |
| 2026-04-20 05:24 | 36.25878 | -115.36618 | 41045 ft | 509 kts | 232° |
| 2026-04-20 05:25 | 36.23508 | -115.39873 | 41046 ft | 511 kts | 221° |
| 2026-04-20 05:25 | 36.20656 | -115.42534 | 41040 ft | 515 kts | 210° |
| 2026-04-20 05:25 | 36.17447 | -115.44492 | 41040 ft | 517 kts | 199° |
| 2026-04-20 05:25 | 36.13981 | -115.45664 | 41038 ft | 516 kts | 188° |
| 2026-04-20 05:26 | 36.10416 | -115.45993 | 41042 ft | 513 kts | 177° |
| 2026-04-20 05:26 | 36.06878 | -115.45477 | 41040 ft | 513 kts | 166° |
| 2026-04-20 05:26 | 36.03521 | -115.44153 | 41039 ft | 513 kts | 155° |
| 2026-04-20 05:26 | 36.00394 | -115.42037 | 41041 ft | 513 kts | 144° |
| 2026-04-20 05:27 | 35.97653 | -115.39220 | 41041 ft | 515 kts | 133° |
| 2026-04-20 05:27 | 35.95395 | -115.35797 | 41042 ft | 515 kts | 122° |
| 2026-04-20 05:27 | 35.93715 | -115.31908 | 41039 ft | 514 kts | 111° |
| 2026-04-20 05:27 | 35.92674 | -115.27702 | 41040 ft | 514 kts | 100° |
| 2026-04-20 05:28 | 35.92304 | -115.23307 | 41039 ft | 514 kts | 89° |
| 2026-04-20 05:28 | 35.92625 | -115.18928 | 41042 ft | 513 kts | 77° |
| 2026-04-20 05:28 | 35.93618 | -115.14714 | 41038 ft | 512 kts | 66° |
| 2026-04-20 05:28 | 35.95243 | -115.10820 | 41041 ft | 511 kts | 55° |
| 2026-04-20 05:29 | 35.97437 | -115.07384 | 41037 ft | 511 kts | 44° |
| 2026-04-20 05:29 | 36.02539 | -115.01257 | 41016 ft | 512 kts | 43° |
| 2026-04-20 05:30 | 36.07678 | -114.95204 | 41009 ft | 509 kts | 44° |
| 2026-04-20 05:30 | 36.12743 | -114.89160 | 41009 ft | 508 kts | 44° |
| 2026-04-20 05:31 | 36.17612 | -114.82793 | 41035 ft | 507 kts | 57° |
| 2026-04-20 05:31 | 36.19334 | -114.78980 | 41029 ft | 510 kts | 68° |
| 2026-04-20 05:31 | 36.20625 | -114.74891 | 41005 ft | 512 kts | 69° |
| 2026-04-20 05:32 | 36.23139 | -114.66623 | 41012 ft | 513 kts | 69° |
| 2026-04-20 05:32 | 36.25646 | -114.58421 | 41012 ft | 512 kts | 69° |
| 2026-04-20 05:33 | 36.28153 | -114.50171 | 41012 ft | 511 kts | 69° |
| 2026-04-20 05:33 | 36.30649 | -114.41936 | 41011 ft | 510 kts | 69° |
| 2026-04-20 05:34 | 36.33135 | -114.33716 | 41014 ft | 509 kts | 69° |
| 2026-04-20 05:34 | 36.36864 | -114.21335 | 41009 ft | 514 kts | 69° |
| 2026-04-20 05:35 | 36.39362 | -114.13010 | 41009 ft | 515 kts | 69° |
| 2026-04-20 05:35 | 36.41847 | -114.04704 | 41012 ft | 511 kts | 69° |
| 2026-04-20 05:36 | 36.44320 | -113.96417 | 41008 ft | 512 kts | 70° |
| 2026-04-20 05:36 | 36.46786 | -113.88126 | 41006 ft | 512 kts | 70° |
| 2026-04-20 05:37 | 36.49248 | -113.79822 | 41007 ft | 512 kts | 70° |
| 2026-04-20 05:37 | 36.51710 | -113.71497 | 41007 ft | 514 kts | 70° |
| 2026-04-20 05:38 | 36.54176 | -113.63133 | 41005 ft | 517 kts | 70° |
| 2026-04-20 05:38 | 36.56638 | -113.54756 | 41010 ft | 520 kts | 70° |
| 2026-04-20 05:39 | 36.59117 | -113.46294 | 41014 ft | 520 kts | 70° |
| 2026-04-20 05:39 | 36.61586 | -113.37843 | 41014 ft | 520 kts | 70° |
| 2026-04-20 05:40 | 36.63648 | -113.30762 | 41009 ft | 518 kts | 70° |
| 2026-04-20 05:40 | 36.66091 | -113.22333 | 41009 ft | 517 kts | 70° |
| 2026-04-20 05:41 | 36.68532 | -113.13897 | 41007 ft | 519 kts | 70° |
| 2026-04-20 05:41 | 36.70973 | -113.05426 | 41008 ft | 518 kts | 70° |
| 2026-04-20 05:42 | 36.73399 | -112.96985 | 41007 ft | 517 kts | 70° |
| 2026-04-20 05:42 | 36.75804 | -112.88591 | 41007 ft | 518 kts | 70° |
| 2026-04-20 05:43 | 36.78238 | -112.80070 | 41005 ft | 518 kts | 70° |
| 2026-04-20 05:43 | 36.80630 | -112.71669 | 41007 ft | 516 kts | 70° |
| 2026-04-20 05:44 | 36.83023 | -112.63238 | 41009 ft | 515 kts | 70° |
| 2026-04-20 05:44 | 36.85409 | -112.54806 | 41004 ft | 515 kts | 70° |
| 2026-04-20 05:45 | 36.87794 | -112.46352 | 41003 ft | 517 kts | 70° |
| 2026-04-20 05:45 | 36.90176 | -112.37866 | 41007 ft | 518 kts | 71° |
| 2026-04-20 05:46 | 36.92556 | -112.29351 | 41009 ft | 519 kts | 70° |
| 2026-04-20 05:46 | 36.94945 | -112.20836 | 41011 ft | 520 kts | 71° |
| 2026-04-20 05:47 | 36.97319 | -112.12306 | 41007 ft | 520 kts | 71° |
| 2026-04-20 05:47 | 36.99699 | -112.03755 | 41008 ft | 520 kts | 71° |
| 2026-04-20 05:48 | 37.02057 | -111.95237 | 41010 ft | 517 kts | 71° |
| 2026-04-20 05:48 | 37.04407 | -111.86732 | 41007 ft | 516 kts | 71° |
| 2026-04-20 05:49 | 37.06746 | -111.78236 | 41008 ft | 518 kts | 71° |
| 2026-04-20 05:49 | 37.09091 | -111.69692 | 41007 ft | 518 kts | 71° |
| 2026-04-20 05:50 | 37.11421 | -111.61175 | 41009 ft | 516 kts | 71° |
| 2026-04-20 05:50 | 37.13749 | -111.52638 | 41008 ft | 518 kts | 71° |
| 2026-04-20 05:51 | 37.16044 | -111.44191 | 41007 ft | 515 kts | 71° |
| 2026-04-20 05:51 | 37.18358 | -111.35650 | 41007 ft | 517 kts | 71° |
| 2026-04-20 05:52 | 37.20661 | -111.27121 | 41007 ft | 515 kts | 71° |
| 2026-04-20 05:52 | 37.23350 | -111.18803 | 40998 ft | 517 kts | 63° |
| 2026-04-20 05:53 | 37.26597 | -111.10732 | 41004 ft | 520 kts | 63° |
| 2026-04-20 05:53 | 37.29829 | -111.02572 | 41010 ft | 520 kts | 63° |
| 2026-04-20 05:54 | 37.33034 | -110.94508 | 41005 ft | 514 kts | 63° |
| 2026-04-20 05:54 | 37.36216 | -110.86463 | 41006 ft | 515 kts | 63° |
| 2026-04-20 05:55 | 37.39404 | -110.78384 | 41007 ft | 517 kts | 63° |
| 2026-04-20 05:55 | 37.42593 | -110.70286 | 41008 ft | 515 kts | 63° |
| 2026-04-20 05:56 | 37.45759 | -110.62222 | 41007 ft | 514 kts | 64° |
| 2026-04-20 05:56 | 37.48924 | -110.54142 | 41006 ft | 515 kts | 64° |
| 2026-04-20 05:57 | 37.52091 | -110.46033 | 41008 ft | 517 kts | 64° |
| 2026-04-20 05:57 | 37.55264 | -110.37892 | 41008 ft | 518 kts | 64° |
| 2026-04-20 05:58 | 37.58437 | -110.29727 | 41008 ft | 517 kts | 64° |
| 2026-04-20 05:58 | 37.61600 | -110.21565 | 41005 ft | 519 kts | 64° |
| 2026-04-20 05:59 | 37.64773 | -110.13355 | 41009 ft | 520 kts | 64° |
| 2026-04-20 05:59 | 37.67898 | -110.05252 | 41009 ft | 519 kts | 64° |
| 2026-04-20 06:00 | 37.71047 | -109.97061 | 41005 ft | 522 kts | 64° |
| 2026-04-20 06:00 | 37.74201 | -109.88839 | 41008 ft | 524 kts | 64° |
| 2026-04-20 06:01 | 37.77370 | -109.80555 | 41010 ft | 523 kts | 64° |
| 2026-04-20 06:01 | 37.80535 | -109.72256 | 41010 ft | 524 kts | 64° |
| 2026-04-20 06:02 | 37.83690 | -109.63963 | 41010 ft | 523 kts | 64° |
| 2026-04-20 06:02 | 37.86840 | -109.55662 | 41005 ft | 524 kts | 64° |
| 2026-04-20 06:03 | 37.89998 | -109.47315 | 41009 ft | 527 kts | 64° |
| 2026-04-20 06:03 | 37.93147 | -109.38970 | 41009 ft | 524 kts | 64° |
| 2026-04-20 06:04 | 37.96272 | -109.30664 | 41011 ft | 521 kts | 64° |
| 2026-04-20 06:04 | 37.99383 | -109.22375 | 41009 ft | 520 kts | 64° |
| 2026-04-20 06:05 | 38.02486 | -109.14085 | 41007 ft | 521 kts | 64° |
| 2026-04-20 06:05 | 38.05586 | -109.05781 | 41007 ft | 521 kts | 64° |
| 2026-04-20 06:06 | 38.08677 | -108.97478 | 41009 ft | 520 kts | 64° |
| 2026-04-20 06:06 | 38.11828 | -108.89391 | 40993 ft | 502 kts | 63° |
| 2026-04-20 06:07 | 38.14865 | -108.81500 | 40992 ft | 497 kts | 63° |
| 2026-04-20 06:07 | 38.17993 | -108.73626 | 40993 ft | 500 kts | 63° |
| 2026-04-20 06:08 | 38.21081 | -108.65691 | 40992 ft | 500 kts | 63° |
| 2026-04-20 06:08 | 38.24175 | -108.57792 | 40994 ft | 498 kts | 63° |
| 2026-04-20 06:09 | 38.27230 | -108.49940 | 40992 ft | 498 kts | 63° |
| 2026-04-20 06:09 | 38.30305 | -108.42029 | 40992 ft | 499 kts | 63° |
| 2026-04-20 06:10 | 38.33380 | -108.34095 | 40993 ft | 502 kts | 64° |
| 2026-04-20 06:10 | 38.36472 | -108.26096 | 40994 ft | 505 kts | 64° |
| 2026-04-20 06:11 | 38.39571 | -108.18058 | 40991 ft | 504 kts | 64° |
| 2026-04-20 06:11 | 38.42652 | -108.10046 | 40993 ft | 502 kts | 64° |
| 2026-04-20 06:12 | 38.45712 | -108.02066 | 40996 ft | 499 kts | 64° |
| 2026-04-20 06:12 | 38.48729 | -107.94114 | 40994 ft | 497 kts | 64° |
| 2026-04-20 06:13 | 38.51724 | -107.86173 | 40994 ft | 496 kts | 64° |
| 2026-04-20 06:13 | 38.54720 | -107.78231 | 40992 ft | 498 kts | 64° |
| 2026-04-20 06:14 | 38.57725 | -107.70225 | 40993 ft | 502 kts | 64° |
| 2026-04-20 06:14 | 38.60748 | -107.62164 | 40999 ft | 504 kts | 64° |
| 2026-04-20 06:15 | 38.63763 | -107.54093 | 40999 ft | 501 kts | 64° |
| 2026-04-20 06:15 | 38.66774 | -107.46043 | 40997 ft | 504 kts | 64° |
| 2026-04-20 06:16 | 38.69843 | -107.38006 | 40999 ft | 507 kts | 64° |
| 2026-04-20 06:16 | 38.72909 | -107.29856 | 41000 ft | 508 kts | 64° |
| 2026-04-20 06:17 | 38.75974 | -107.21740 | 40667 ft | 503 kts | 64° |
| 2026-04-20 06:17 | 38.77500 | -107.17685 | 39756 ft | 508 kts | 64° |
| 2026-04-20 06:17 | 38.79023 | -107.13618 | 39109 ft | 505 kts | 64° |
| 2026-04-20 06:18 | 38.80540 | -107.09573 | 38429 ft | 503 kts | 64° |
| 2026-04-20 06:18 | 38.82052 | -107.05539 | 37746 ft | 500 kts | 64° |
| 2026-04-20 06:18 | 38.83552 | -107.01531 | 37063 ft | 498 kts | 64° |
| 2026-04-20 06:18 | 38.85044 | -106.97535 | 36392 ft | 495 kts | 64° |
| 2026-04-20 06:19 | 38.86525 | -106.93565 | 35742 ft | 491 kts | 64° |
| 2026-04-20 06:19 | 38.87990 | -106.89634 | 35098 ft | 487 kts | 64° |
| 2026-04-20 06:19 | 38.89446 | -106.85721 | 34445 ft | 484 kts | 64° |
| 2026-04-20 06:19 | 38.90889 | -106.81837 | 33819 ft | 480 kts | 64° |
| 2026-04-20 06:20 | 38.92317 | -106.77989 | 33198 ft | 476 kts | 64° |
| 2026-04-20 06:20 | 38.93733 | -106.74168 | 32574 ft | 472 kts | 64° |
| 2026-04-20 06:20 | 38.95136 | -106.70378 | 31960 ft | 468 kts | 64° |
| 2026-04-20 06:20 | 38.96525 | -106.66621 | 31357 ft | 463 kts | 64° |
| 2026-04-20 06:21 | 38.97898 | -106.62901 | 30760 ft | 458 kts | 64° |
| 2026-04-20 06:21 | 38.99256 | -106.59220 | 30165 ft | 454 kts | 64° |
| 2026-04-20 06:21 | 39.00599 | -106.55572 | 29684 ft | 447 kts | 64° |
| 2026-04-20 06:21 | 39.01886 | -106.52056 | 29296 ft | 422 kts | 65° |
| 2026-04-20 06:22 | 39.03134 | -106.48639 | 28979 ft | 422 kts | 65° |
| 2026-04-20 06:22 | 39.04385 | -106.45219 | 28647 ft | 423 kts | 65° |
| 2026-04-20 06:22 | 39.05635 | -106.41799 | 28326 ft | 422 kts | 65° |
| 2026-04-20 06:22 | 39.06874 | -106.38404 | 27997 ft | 417 kts | 65° |
| 2026-04-20 06:23 | 39.08096 | -106.35047 | 27686 ft | 412 kts | 65° |
| 2026-04-20 06:23 | 39.09291 | -106.31764 | 27369 ft | 409 kts | 65° |
| 2026-04-20 06:23 | 39.10491 | -106.28462 | 27062 ft | 407 kts | 65° |
| 2026-04-20 06:23 | 39.11701 | -106.25131 | 26737 ft | 406 kts | 65° |
| 2026-04-20 06:24 | 39.12878 | -106.21886 | 26440 ft | 406 kts | 65° |
| 2026-04-20 06:24 | 39.14088 | -106.18546 | 26131 ft | 406 kts | 65° |
| 2026-04-20 06:24 | 39.15266 | -106.15292 | 25833 ft | 406 kts | 65° |
| 2026-04-20 06:24 | 39.16452 | -106.12003 | 25518 ft | 403 kts | 65° |
| 2026-04-20 06:25 | 39.17639 | -106.08699 | 25207 ft | 399 kts | 65° |
| 2026-04-20 06:25 | 39.18798 | -106.05470 | 24901 ft | 396 kts | 65° |
| 2026-04-20 06:25 | 39.19938 | -106.02299 | 24604 ft | 393 kts | 65° |
| 2026-04-20 06:25 | 39.21097 | -105.99068 | 24290 ft | 391 kts | 65° |
| 2026-04-20 06:26 | 39.22219 | -105.95937 | 24008 ft | 389 kts | 65° |
| 2026-04-20 06:26 | 39.23351 | -105.92772 | 23729 ft | 387 kts | 65° |
| 2026-04-20 06:26 | 39.24475 | -105.89631 | 23418 ft | 385 kts | 65° |
| 2026-04-20 06:26 | 39.25607 | -105.86499 | 23129 ft | 384 kts | 65° |
| 2026-04-20 06:27 | 39.26733 | -105.83389 | 22836 ft | 382 kts | 65° |
| 2026-04-20 06:27 | 39.27849 | -105.80288 | 22541 ft | 380 kts | 65° |
| 2026-04-20 06:27 | 39.28598 | -105.78200 | 22356 ft | 379 kts | 65° |
| 2026-04-20 06:27 | 39.29704 | -105.75117 | 22067 ft | 378 kts | 65° |
| 2026-04-20 06:28 | 39.30806 | -105.72049 | 21778 ft | 376 kts | 65° |
| 2026-04-20 06:28 | 39.31902 | -105.68993 | 21483 ft | 374 kts | 65° |
| 2026-04-20 06:28 | 39.32979 | -105.65990 | 21211 ft | 372 kts | 65° |
| 2026-04-20 06:28 | 39.34086 | -105.62965 | 20936 ft | 371 kts | 64° |
| 2026-04-20 06:29 | 39.35193 | -105.59964 | 20646 ft | 370 kts | 64° |
| 2026-04-20 06:29 | 39.36292 | -105.56955 | 20359 ft | 370 kts | 65° |
| 2026-04-20 06:29 | 39.37381 | -105.53951 | 20085 ft | 368 kts | 65° |
| 2026-04-20 06:29 | 39.38466 | -105.50969 | 19809 ft | 365 kts | 64° |
| 2026-04-20 06:30 | 39.39530 | -105.48046 | 19544 ft | 362 kts | 64° |
| 2026-04-20 06:30 | 39.40599 | -105.45105 | 19268 ft | 351 kts | 65° |
| 2026-04-20 06:30 | 39.41629 | -105.42325 | 18995 ft | 343 kts | 60° |
| 2026-04-20 06:30 | 39.42977 | -105.39815 | 18743 ft | 339 kts | 54° |
| 2026-04-20 06:31 | 39.44323 | -105.37312 | 18489 ft | 339 kts | 55° |
| 2026-04-20 06:31 | 39.45660 | -105.34796 | 18229 ft | 338 kts | 55° |
| 2026-04-20 06:31 | 39.47011 | -105.32311 | 17971 ft | 337 kts | 54° |
| 2026-04-20 06:31 | 39.48365 | -105.29839 | 17639 ft | 338 kts | 54° |
| 2026-04-20 06:32 | 39.49714 | -105.27355 | 17322 ft | 335 kts | 55° |
| 2026-04-20 06:32 | 39.51034 | -105.24913 | 17048 ft | 328 kts | 55° |
| 2026-04-20 06:32 | 39.52325 | -105.22527 | 16789 ft | 317 kts | 54° |
| 2026-04-20 06:32 | 39.53572 | -105.20225 | 16545 ft | 306 kts | 54° |
| 2026-04-20 06:33 | 39.54773 | -105.18005 | 16310 ft | 296 kts | 54° |
| 2026-04-20 06:33 | 39.55930 | -105.15860 | 16085 ft | 287 kts | 55° |
| 2026-04-20 06:33 | 39.57068 | -105.13748 | 15871 ft | 283 kts | 55° |
| 2026-04-20 06:33 | 39.58192 | -105.11664 | 15663 ft | 282 kts | 54° |
| 2026-04-20 06:34 | 39.59315 | -105.09580 | 15458 ft | 281 kts | 54° |
| 2026-04-20 06:34 | 39.60431 | -105.07506 | 15248 ft | 281 kts | 55° |
| 2026-04-20 06:34 | 39.62656 | -105.03368 | 14845 ft | 276 kts | 55° |
| 2026-04-20 06:35 | 39.63752 | -105.01328 | 14637 ft | 276 kts | 55° |
| 2026-04-20 06:35 | 39.64853 | -104.99278 | 14422 ft | 276 kts | 55° |
| 2026-04-20 06:35 | 39.65948 | -104.97237 | 14212 ft | 276 kts | 55° |
| 2026-04-20 06:35 | 39.67043 | -104.95195 | 14010 ft | 275 kts | 55° |
| 2026-04-20 06:36 | 39.68132 | -104.93163 | 13792 ft | 274 kts | 55° |
| 2026-04-20 06:36 | 39.69218 | -104.91134 | 13598 ft | 273 kts | 55° |
| 2026-04-20 06:36 | 39.70300 | -104.89113 | 13389 ft | 272 kts | 55° |
| 2026-04-20 06:36 | 39.71375 | -104.87104 | 13182 ft | 271 kts | 55° |
| 2026-04-20 06:37 | 39.72520 | -104.85252 | 12999 ft | 258 kts | 39° |
| 2026-04-20 06:37 | 39.74088 | -104.84237 | 12808 ft | 244 kts | 13° |
| 2026-04-20 06:37 | 39.75744 | -104.84088 | 12627 ft | 237 kts | 0° |
| 2026-04-20 06:37 | 39.77396 | -104.84068 | 12448 ft | 237 kts | 360° |
| 2026-04-20 06:38 | 39.79042 | -104.84057 | 12270 ft | 236 kts | 360° |
| 2026-04-20 06:38 | 39.80681 | -104.84040 | 12085 ft | 235 kts | 0° |
| 2026-04-20 06:38 | 39.82295 | -104.84020 | 11910 ft | 234 kts | 0° |
| 2026-04-20 06:38 | 39.83946 | -104.84000 | 11715 ft | 234 kts | 0° |
| 2026-04-20 06:39 | 39.85546 | -104.83982 | 11551 ft | 233 kts | 0° |
| 2026-04-20 06:39 | 39.87165 | -104.83963 | 11373 ft | 232 kts | 360° |
| 2026-04-20 06:39 | 39.88777 | -104.83944 | 11192 ft | 231 kts | 0° |
| 2026-04-20 06:39 | 39.90385 | -104.83926 | 11020 ft | 231 kts | 0° |
| 2026-04-20 06:40 | 39.91986 | -104.83903 | 10848 ft | 230 kts | 1° |
| 2026-04-20 06:40 | 39.93546 | -104.83574 | 10824 ft | 227 kts | 10° |
| 2026-04-20 06:40 | 39.95123 | -104.83275 | 10828 ft | 230 kts | 7° |
| 2026-04-20 06:40 | 39.96707 | -104.82988 | 10832 ft | 231 kts | 8° |
| 2026-04-20 06:41 | 39.98295 | -104.82662 | 10837 ft | 231 kts | 8° |
| 2026-04-20 06:41 | 39.99879 | -104.82328 | 10837 ft | 231 kts | 8° |
| 2026-04-20 06:41 | 40.01465 | -104.81998 | 10834 ft | 230 kts | 8° |
| 2026-04-20 06:41 | 40.03046 | -104.81673 | 10835 ft | 230 kts | 8° |
| 2026-04-20 06:42 | 40.04626 | -104.81347 | 10835 ft | 230 kts | 8° |
| 2026-04-20 06:42 | 40.06206 | -104.81020 | 10836 ft | 230 kts | 8° |
| 2026-04-20 06:42 | 40.07795 | -104.80692 | 10839 ft | 231 kts | 8° |
| 2026-04-20 06:42 | 40.09383 | -104.80363 | 10834 ft | 231 kts | 8° |
| 2026-04-20 06:43 | 40.10972 | -104.80034 | 10834 ft | 232 kts | 8° |
| 2026-04-20 06:43 | 40.12563 | -104.79704 | 10837 ft | 232 kts | 8° |
| 2026-04-20 06:43 | 40.14159 | -104.79374 | 10833 ft | 232 kts | 8° |
| 2026-04-20 06:43 | 40.15751 | -104.79044 | 10834 ft | 231 kts | 8° |
| 2026-04-20 06:44 | 40.17339 | -104.78714 | 10834 ft | 231 kts | 8° |
| 2026-04-20 06:44 | 40.18921 | -104.78386 | 10834 ft | 230 kts | 8° |
| 2026-04-20 06:44 | 40.20504 | -104.78057 | 10830 ft | 230 kts | 8° |
| 2026-04-20 06:44 | 40.22085 | -104.77729 | 10830 ft | 230 kts | 8° |
| 2026-04-20 06:45 | 40.23642 | -104.77267 | 10806 ft | 231 kts | 24° |
| 2026-04-20 06:45 | 40.24806 | -104.75857 | 10810 ft | 232 kts | 58° |
| 2026-04-20 06:45 | 40.25191 | -104.73832 | 10602 ft | 229 kts | 93° |
| 2026-04-20 06:45 | 40.24746 | -104.71901 | 10392 ft | 218 kts | 116° |
| 2026-04-20 06:46 | 40.23706 | -104.70588 | 10149 ft | 212 kts | 157° |
| 2026-04-20 06:46 | 40.22312 | -104.70001 | 10016 ft | 210 kts | 163° |
| 2026-04-20 06:46 | 40.20923 | -104.69392 | 9842 ft | 210 kts | 164° |
| 2026-04-20 06:46 | 40.19500 | -104.69250 | 9827 ft | 205 kts | 182° |
| 2026-04-20 06:47 | 40.18052 | -104.69276 | 9836 ft | 209 kts | 181° |
| 2026-04-20 06:47 | 40.16596 | -104.69296 | 9840 ft | 208 kts | 181° |
| 2026-04-20 06:47 | 40.15193 | -104.69311 | 9827 ft | 196 kts | 181° |
| 2026-04-20 06:47 | 40.13839 | -104.69327 | 9823 ft | 193 kts | 181° |
| 2026-04-20 06:48 | 40.12496 | -104.69342 | 9758 ft | 196 kts | 181° |
| 2026-04-20 06:48 | 40.11123 | -104.69357 | 9514 ft | 196 kts | 181° |
| 2026-04-20 06:48 | 40.09768 | -104.69372 | 9247 ft | 194 kts | 181° |
| 2026-04-20 06:48 | 40.08436 | -104.69387 | 9017 ft | 188 kts | 181° |
| 2026-04-20 06:49 | 40.07149 | -104.69401 | 8762 ft | 180 kts | 181° |
| 2026-04-20 06:49 | 40.05952 | -104.69414 | 8517 ft | 165 kts | 181° |
| 2026-04-20 06:49 | 40.04839 | -104.69426 | 8299 ft | 156 kts | 181° |
| 2026-04-20 06:49 | 40.03757 | -104.69438 | 8094 ft | 154 kts | 181° |
| 2026-04-20 06:50 | 40.02687 | -104.69450 | 7896 ft | 154 kts | 181° |
| 2026-04-20 06:50 | 40.01599 | -104.69462 | 7701 ft | 158 kts | 181° |
| 2026-04-20 06:50 | 40.00476 | -104.69475 | 7486 ft | 166 kts | 181° |
| 2026-04-20 06:50 | 39.99287 | -104.69489 | 7265 ft | 176 kts | 181° |
| 2026-04-20 06:51 | 39.98034 | -104.69504 | 7030 ft | 181 kts | 181° |
| 2026-04-20 06:51 | 39.96786 | -104.69517 | 6780 ft | 177 kts | 181° |
| 2026-04-20 06:51 | 39.95565 | -104.69531 | 6547 ft | 174 kts | 181° |
| 2026-04-20 06:51 | 39.94369 | -104.69544 | 6317 ft | 169 kts | 181° |
| 2026-04-20 06:52 | 39.93201 | -104.69557 | 6087 ft | 168 kts | 181° |
| 2026-04-20 06:52 | 39.92028 | -104.69574 | 5877 ft | 166 kts | 181° |
| 2026-04-20 06:52 | 39.90890 | -104.69590 | 5647 ft | 162 kts | 181° |
| 2026-04-20 06:52 | 39.89767 | -104.69602 | 5431 ft | 160 kts | 181° |
| 2026-04-20 06:53 | 39.88717 | -104.69633 | 5395 ft | 141 kts | 184° |
| 2026-04-20 06:53 | 39.87834 | -104.69633 | 5369 ft | 104 kts | 179° |
| 2026-04-20 06:53 | 39.87255 | -104.69635 | 5370 ft | 70 kts | 181° |
| 2026-04-20 06:53 | 39.86849 | -104.69621 | 5370 ft | 42 kts | 169° |
| 2026-04-20 06:54 | 39.86608 | -104.69487 | 5368 ft | 27 kts | 149° |
| 2026-04-20 06:54 | 39.86480 | -104.69390 | 5368 ft | 21 kts | 149° |
| 2026-04-20 06:54 | 39.86352 | -104.69304 | 5368 ft | 20 kts | 150° |
| 2026-04-20 06:54 | 39.86234 | -104.69212 | 5368 ft | 20 kts | 149° |
| 2026-04-20 06:55 | 39.86115 | -104.69121 | 5369 ft | 19 kts | 152° |
| 2026-04-20 06:55 | 39.86032 | -104.69017 | 5368 ft | 14 kts | 95° |
| 2026-04-20 06:55 | 39.86036 | -104.68908 | 5368 ft | 11 kts | 89° |
| 2026-04-20 06:55 | 39.86038 | -104.68802 | 5368 ft | 12 kts | 89° |
| 2026-04-20 06:56 | 39.86036 | -104.68696 | 5367 ft | 12 kts | 91° |
| 2026-04-20 06:56 | 39.86033 | -104.68585 | 5369 ft | 13 kts | 91° |
| 2026-04-20 06:56 | 39.85999 | -104.68517 | 5370 ft | 8 kts | 159° |
| 2026-04-20 06:56 | 39.85950 | -104.68510 | 5370 ft | 8 kts | 178° |
| 2026-04-20 06:57 | 39.85877 | -104.68510 | 5367 ft | 13 kts | 182° |
| 2026-04-20 06:57 | 39.85773 | -104.68512 | 5369 ft | 17 kts | 180° |
| 2026-04-20 06:57 | 39.85635 | -104.68510 | 5369 ft | 20 kts | 168° |
| 2026-04-20 06:57 | 39.85581 | -104.68408 | 5370 ft | 12 kts | 82° |
| 2026-04-20 06:58 | 39.85599 | -104.68291 | 5369 ft | 14 kts | 92° |
| 2026-04-20 06:58 | 39.85591 | -104.68141 | 5370 ft | 19 kts | 94° |
| 2026-04-20 06:58 | 39.85589 | -104.67945 | 5369 ft | 24 kts | 85° |
| 2026-04-20 06:58 | 39.85567 | -104.67735 | 5367 ft | 23 kts | 118° |
| 2026-04-20 06:59 | 39.85523 | -104.67568 | 5368 ft | 14 kts | 97° |
| 2026-04-20 06:59 | 39.85504 | -104.67482 | 5369 ft | 5 kts | 141° |
| 2026-04-20 06:59 | 39.85494 | -104.67479 | 5368 ft | 1 kts | 180° |
| 2026-04-20 06:59 | 39.85483 | -104.67484 | 5367 ft | 3 kts | 204° |
| 2026-04-20 07:00 | 39.85461 | -104.67492 | 5369 ft | 2 kts | 192° |
| 2026-04-20 07:00 | 39.85447 | -104.67496 | 5369 ft | 2 kts | 189° |
| 2026-04-20 07:00 | 39.85444 | -104.67496 | 5370 ft | 0 kts | 189° |